Mason Valley Wildlife Refuge, Nevada Weather observations

Data are for 10 minute period ending at time listed.
 Day   Time   Solar   Ave.   Ave.  Ave.  Vector  Max.   Baro.   Total    
  of    of     Rad.   Air    Rel.  Wind   Wind   Wind  Press.  Precip.   
Year   Day            Temp.  Hum.  Speed  Dir.   Gust                    
2017   (PST)  Kw/m2    F      %     mph   deg.    mph    mb.     in.     
-------------------------------------------------------------------------
  15    8:50   0.02   28.7    86    0.8   255     2.2   872.9    0.00 
  15    9:00   0.02   28.8    86    0.9   268     2.2   873.0    0.00 
  15    9:10   0.03   28.8    85    1.1   249     3.5   873.1    0.00 
  15    9:20   0.03   28.8    85    3.0   278     5.1   873.2    0.00 
  15    9:30   0.04   28.9    84    3.2   279     4.7   873.1    0.00 
  15    9:40   0.04   29.0    84    2.6   286     3.8   873.4    0.00 
  15    9:50   0.03   29.0    85    2.1   297     3.5   873.5    0.00 
  15   10:00   0.04   28.9    85    3.1   273     4.7   873.5    0.00 
  15   10:10   0.05   28.7    84    3.6   253     6.1   873.5    0.00 
  15   10:20   0.05   28.7    84    3.2   257     5.0   873.5    0.00 
  15   10:30   0.05   28.8    84    3.1   264     4.8   873.5    0.00 
  15   10:40   0.06   28.9    84    2.6   248     4.5   873.5    0.00 
  15   10:50   0.06   28.7    84    3.7   247     5.3   873.5    0.00 
  15   11:00   0.06   28.9    84    4.2   281     6.2   873.5    0.00 
  15   11:10   0.07   28.9    83    3.7   265     5.3   873.4    0.00 
  15   11:20   0.07   28.7    84    3.6   254     5.5   873.3    0.00 
  15   11:30   0.07   28.7    84    3.9   249     5.2   873.1    0.00 
  15   11:40   0.07   28.8    85    3.7   251     5.2   873.1    0.00 
  15   11:50   0.07   29.0    85    3.5   260     6.0   872.9    0.00 
  15   12:00   0.07   28.9    85    3.2   251     5.0   872.6    0.00 
  15   12:10   0.08   28.9    85    2.6   224     5.8   872.2    0.00 
  15   12:20   0.08   28.7    85    4.4   217     6.2   871.9    0.00 
  15   12:30   0.09   28.8    86    4.2   227     6.3   871.7    0.00 
  15   12:40   0.07   28.8    86    2.6   225     4.8   871.5    0.00 
  15   12:50   0.07   28.7    86    3.5   229     5.6   871.4    0.00 
  15   13:00   0.08   28.8    86    2.9   177     5.3   871.2    0.00 
  15   13:10   0.07   28.8    85    3.5   170     6.0   871.1    0.00 
  15   13:20   0.07   28.8    85    1.8   203     3.9   871.2    0.00 
  15   13:30   0.07   28.9    85    2.3   250     5.9   871.1    0.00 
  15   13:40   0.07   29.3    84    2.3   282     4.7   871.3    0.00 
  15   13:50   0.07   29.5    83    0.6   236     1.8   871.4    0.00 
  15   14:00   0.07   29.2    83    2.4   232     4.5   871.5    0.00 
  15   14:10   0.07   29.2    84    2.5   279     4.4   871.6    0.00 
  15   14:20   0.05   29.2    84    2.4   310     4.5   871.7    0.00 
  15   14:30   0.05   29.1    85    1.8    14     5.2   871.7    0.00 
  15   14:40   0.05   29.1    85    1.8    15     3.1   871.9    0.00 
  15   14:50   0.05   29.1    85    2.7   331     4.9   872.0    0.00 
  15   15:00   0.04   29.0    85    1.5   306     3.5   872.0    0.00 
  15   15:10   0.03   29.4    84    1.1   276     2.5   872.0    0.00 
  15   15:20   0.03   29.2    85    2.4   272     3.8   872.1    0.00 
  15   15:30   0.02   29.2    85    2.9   284     4.1   872.1    0.00 
  15   15:40   0.02   29.3    85    2.8   284     4.5   872.2    0.00 
  15   15:50   0.02   29.3    85    3.4   290     5.4   872.3    0.00 
  15   16:00   0.02   29.2    86    4.1   281     6.1   872.3    0.00 
  15   16:10   0.02   29.1    86    3.7   300     5.8   872.4    0.00 
  15   16:20   0.02   29.1    85    3.0   291     4.7   872.5    0.00 
  15   16:30   0.01   29.2    85    3.4   291     5.8   872.6    0.00 
  15   16:40   0.01   29.2    85    3.6   278     5.0   872.6    0.00 
  15   16:50   0.00   29.1    86    3.7   268     5.6   872.6    0.00 
  15   17:00   0.00   29.0    86    4.6   252     7.1   872.5    0.00 
  15   17:10   0.00   28.9    86    4.4   246     6.6   872.6    0.00 
  15   17:20   0.00   28.9    86    1.2   222     3.4   872.7    0.00 
  15   17:30   0.00   28.9    86    0.8   223     2.2   872.8    0.00 
  15   17:40   0.00   28.9    87    0.8   216     2.1   872.9    0.00 
  15   17:50   0.00   28.9    87    2.1   256     3.5   873.1    0.00 
  15   18:00   0.00   28.8    87    2.7   312     4.9   873.2    0.00 
  15   18:10   0.00   28.8    86    2.6   180     5.5   873.2    0.00 
  15   18:20   0.00   28.8    86    2.3   207     3.7   873.2    0.00 
  15   18:30   0.00   28.8    87    1.8   211     3.7   873.4    0.00 
  15   18:40   0.00   28.8    86    2.3   195     3.7   873.4    0.00 
  15   18:50   0.00   28.8    86    1.4   185     3.7   873.5    0.00 
  15   19:00   0.00   28.8    86    0.8   222     2.0   873.5    0.00 
  15   19:10   0.00   28.8    86    1.6   244     3.9   873.5    0.00 
  15   19:20   0.00   28.7    87    4.3   215     6.1   873.5    0.00 
  15   19:30   0.00   28.7    87    3.1   234     4.3   873.6    0.00 
  15   19:40   0.00   28.7    86    3.2   223     4.5   873.8    0.00 
  15   19:50   0.00   28.7    86    2.9   238     4.6   873.8    0.00 
  15   20:00   0.00   28.6    86    3.0   239     4.7   873.9    0.00 
  15   20:10   0.00   28.6    87    3.2   290     6.0   874.0    0.00 
  15   20:20   0.00   28.6    88    2.4   289     6.7   874.1    0.00 
  15   20:30   0.00   28.6    88    1.8   331     3.2   874.3    0.00 
  15   20:40   0.00   28.6    88    2.4   300     3.4   874.3    0.00 
  15   20:50   0.00   28.6    88    2.2   305     4.1   874.4    0.00 
  15   21:00   0.00   28.6    88    2.4   312     4.2   874.6    0.00 
  15   21:10   0.00   28.6    88    3.8   325     6.2   874.7    0.00 
  15   21:20   0.00   28.6    88    2.8   311     4.6   874.7    0.00 
  15   21:30   0.00   28.6    88    2.5   353     4.7   874.7    0.00 
  15   21:40   0.00   28.5    87    3.8     7     6.6   874.7    0.00 
  15   21:50   0.00   28.5    87    3.5   344     5.8   874.9    0.00 
  15   22:00   0.00   28.5    87    3.8   326     5.6   875.0    0.00 
  15   22:10   0.00   28.6    86    3.2   331     5.2   875.2    0.00 
  15   22:20   0.00   28.7    86    2.3     0     4.1   875.4    0.00 
  15   22:30   0.00   28.7    86    2.9     4     4.8   875.4    0.00 
  15   22:40   0.00   28.8    86    3.4    14     5.5   875.5    0.00 
  15   22:50   0.00   28.8    85    2.5   349     3.7   875.7    0.00 
  15   23:00   0.00   28.8    86    2.6   321     3.7   875.7    0.00 
  15   23:10   0.00   28.8    86    2.8   325     4.4   875.8    0.00 
  15   23:20   0.00   28.8    85    2.5   329     5.1   875.7    0.00 
  15   23:30   0.00   29.0    84    3.0   333     6.4   875.8    0.00 
  15   23:40   0.00   29.0    84    1.2   330     2.9   875.9    0.00 
  15   23:50   0.00   29.0    84    1.1   351     2.0   875.9    0.00 
  16    0:00   0.00   29.0    85    2.3   292     4.1   876.0    0.00 
  16    0:10   0.00   28.9    87    2.8   278     4.4   876.0    0.00 
  16    0:20   0.00   28.8    87    3.0   272     4.7   875.9    0.00 
  16    0:30   0.00   28.8    88    3.3   260     4.6   875.8    0.00 
  16    0:40   0.00   28.7    88    4.0   251     5.6   875.7    0.00 
  16    0:50   0.00   28.6    87    4.4   241     6.4   875.6    0.00 
  16    1:00   0.00   28.5    87    4.7   222     6.7   875.5    0.00 
  16    1:10   0.00   28.3    87    5.6   224     8.3   875.4    0.00 
  16    1:20   0.00   28.3    87    5.9   230     8.5   875.5    0.00 
  16    1:30   0.00   28.3    87    4.9   232     7.6   875.6    0.00 
  16    1:40   0.00   28.3    86    5.5   233     7.5   875.7    0.00 
  16    1:50   0.00   28.2    86    5.7   234     8.1   875.7    0.00 
  16    2:00   0.00   28.0    86    6.5   233     9.4   875.7    0.00 
  16    2:10   0.00   27.9    86    6.4   232     8.7   875.7    0.00 
  16    2:20   0.00   27.8    87    5.4   228     8.6   875.8    0.00 
  16    2:30   0.00   27.8    87    5.4   233     8.6   875.7    0.00 
  16    2:40   0.00   27.8    86    5.9   235     8.6   875.7    0.00 
  16    2:50   0.00   27.7    86    6.8   230    10.8   875.6    0.00 
  16    3:00   0.00   27.7    86    7.3   230    10.4   875.5    0.00 
  16    3:10   0.00   27.7    85    6.5   225     9.6   875.4    0.00 
  16    3:20   0.00   27.6    85    7.3   229    11.8   875.4    0.00 
  16    3:30   0.00   27.6    85    7.4   219    11.2   875.3    0.00 
  16    3:40   0.00   27.6    84    6.9   225     9.3   875.2    0.00 
  16    3:50   0.00   27.5    85    7.1   230     9.9   875.3    0.00 
  16    4:00   0.00   27.4    86    6.5   227    10.7   875.4    0.00 
  16    4:10   0.00   27.2    86    6.7   229     9.6   875.4    0.00 
  16    4:20   0.00   27.2    85    6.1   228     8.4   875.5    0.00 
  16    4:30   0.00   27.0    85    6.9   233     9.4   875.5    0.00 
  16    4:40   0.00   26.9    84    6.2   233     9.1   875.5    0.00 
  16    4:50   0.00   26.9    84    5.7   232     9.6   875.6    0.00 
  16    5:00   0.00   26.8    84    6.1   236     8.6   875.6    0.00 
  16    5:10   0.00   26.9    84    5.3   228     7.6   875.7    0.00 
  16    5:20   0.00   26.9    83    5.2   233     7.0   875.7    0.00 
  16    5:30   0.00   26.9    82    4.3   233     6.4   875.8    0.00 
  16    5:40   0.00   26.9    82    4.9   236     7.4   875.8    0.00 
  16    5:50   0.00   26.9    82    4.3   242     6.7   875.8    0.00 
  16    6:00   0.00   26.9    81    4.2   232     6.0   876.0    0.00 
  16    6:10   0.00   26.9    81    3.7   243     5.5   876.1    0.00 
  16    6:20   0.00   27.0    81    4.1   252     7.2   876.2    0.00 
  16    6:30   0.00   27.0    81    4.6   227     6.8   876.2    0.00 
  16    6:40   0.00   27.0    81    4.6   218     6.3   876.3    0.00 
  16    6:50   0.00   26.9    81    4.7   224     6.4   876.3    0.00 
  16    7:00   0.00   26.9    81    4.3   211     6.1   876.3    0.00 
  16    7:10   0.00   26.9    80    4.6   224     6.1   876.3    0.00 
  16    7:20   0.00   26.9    80    3.5   213     5.0   876.4    0.00 
  16    7:30   0.01   26.9    80    5.7   208     8.0   876.5    0.00 
  16    7:40   0.01   26.8    81    4.9   203     7.6   876.5    0.00 
  16    7:50   0.01   26.8    80    6.5   209     9.7   876.5    0.00 
  16    8:00   0.02   26.4    81    5.7   233     8.0   876.6    0.00 
  16    8:10   0.02   26.4    81    5.7   234     8.6   876.7    0.00 
  16    8:20   0.03   26.4    81    6.3   242     9.3   876.7    0.00 
  16    8:30   0.03   26.3    80    7.2   243    10.6   876.9    0.00 
  16    8:40   0.04   26.4    80    6.8   231    10.2   876.8    0.00 

Return to Mason Valley Wildlife Refuge graphs page.


Western Regional Climate Center,wrcc@dri.edu